createdAt,value
2022-12-20T00:00:33.478Z,1.84
2022-12-20T00:02:44.121Z,1.85
2022-12-20T00:04:52.131Z,1.80
2022-12-20T00:07:00.330Z,1.71
2022-12-20T00:09:11.763Z,1.61
2022-12-20T00:11:19.645Z,1.62
2022-12-20T00:13:27.862Z,1.57
2022-12-20T00:15:36.390Z,1.51
2022-12-20T00:17:47.347Z,1.56
2022-12-20T00:19:57.280Z,1.45
2022-12-20T00:22:05.381Z,1.40
2022-12-20T00:24:13.382Z,1.41
2022-12-20T00:26:23.284Z,1.40
2022-12-20T00:28:31.926Z,1.44
2022-12-20T00:30:40.085Z,1.34
2022-12-20T00:32:51.028Z,1.28
2022-12-20T00:34:59.275Z,1.29
2022-12-20T00:37:07.327Z,1.21
2022-12-20T00:39:15.569Z,1.24
2022-12-20T00:41:25.415Z,1.25
2022-12-20T00:43:34.334Z,1.20
2022-12-20T00:45:42.474Z,1.12
2022-12-20T00:47:53.549Z,1.09
2022-12-20T00:50:01.506Z,1.08
2022-12-20T00:52:09.573Z,1.06
2022-12-20T00:54:19.927Z,1.02
2022-12-20T00:56:30.693Z,1.05
2022-12-20T00:58:41.836Z,1.04
2022-12-20T01:00:55.758Z,1.07
2022-12-20T01:03:08.227Z,1.07
2022-12-20T01:05:16.418Z,1.12
2022-12-20T01:07:24.872Z,1.23
2022-12-20T01:09:33.470Z,1.48
2022-12-20T01:11:42.692Z,1.52
2022-12-20T01:13:53.327Z,1.52
2022-12-20T01:16:07.792Z,1.59
2022-12-20T01:18:18.217Z,1.55
2022-12-20T01:20:26.118Z,1.51
2022-12-20T01:22:34.186Z,1.61
2022-12-20T01:24:42.454Z,1.68
2022-12-20T01:26:51.048Z,1.67
2022-12-20T01:29:01.875Z,1.78
2022-12-20T01:31:14.632Z,1.53
2022-12-20T01:33:26.341Z,1.53
2022-12-20T01:35:34.639Z,1.57
2022-12-20T01:37:42.516Z,1.70
2022-12-20T01:39:50.507Z,1.75
2022-12-20T01:41:58.536Z,1.70
2022-12-20T01:44:09.685Z,1.63
2022-12-20T01:46:15.858Z,1.61
2022-12-20T01:48:29.314Z,1.61
2022-12-20T01:50:38.085Z,1.62
2022-12-20T01:52:49.309Z,1.67
2022-12-20T01:55:01.405Z,1.72
2022-12-20T01:57:14.723Z,1.71
2022-12-20T01:59:22.970Z,1.69
2022-12-20T02:01:31.663Z,1.75
2022-12-20T02:03:43.043Z,1.77
2022-12-20T02:05:51.035Z,1.85
2022-12-20T02:08:00.136Z,1.85
2022-12-20T02:10:10.590Z,2.01
2022-12-20T02:12:23.087Z,2.04
2022-12-20T02:14:53.630Z,2.14
2022-12-20T02:17:12.324Z,2.14
2022-12-20T02:19:44.722Z,2.15
2022-12-20T02:22:02.024Z,2.21
2022-12-20T02:24:54.831Z,2.30
2022-12-20T02:27:20.846Z,2.25
2022-12-20T02:29:38.788Z,2.30
2022-12-20T02:31:57.880Z,2.30
2022-12-20T02:34:08.824Z,2.46
2022-12-20T02:36:18.205Z,2.45
2022-12-20T02:38:31.366Z,2.46
2022-12-20T02:40:46.583Z,2.49
2022-12-20T02:42:58.860Z,2.46
2022-12-20T02:45:17.676Z,2.47
2022-12-20T02:47:34.942Z,2.44
2022-12-20T02:49:45.656Z,2.29
2022-12-20T02:51:57.590Z,2.21
2022-12-20T02:54:05.971Z,2.25
2022-12-20T02:56:23.086Z,2.26
2022-12-20T02:58:35.267Z,2.29
2022-12-20T03:00:49.128Z,2.26
2022-12-20T03:03:12.526Z,2.32
2022-12-20T03:05:23.193Z,2.24
2022-12-20T03:07:37.899Z,2.39
2022-12-20T03:09:47.970Z,2.26
2022-12-20T03:11:57.452Z,2.11
2022-12-20T03:14:05.965Z,2.00
2022-12-20T03:16:15.836Z,1.97
2022-12-20T03:18:27.418Z,2.01
2022-12-20T03:20:35.969Z,1.90
2022-12-20T03:22:43.946Z,1.91
2022-12-20T03:24:51.806Z,1.88
2022-12-20T03:27:00.172Z,1.99
2022-12-20T03:29:08.747Z,2.02
2022-12-20T03:31:16.835Z,1.96
2022-12-20T03:33:33.105Z,1.90
2022-12-20T03:35:46.457Z,1.85
2022-12-20T03:37:58.551Z,1.88
2022-12-20T03:40:07.728Z,1.87
2022-12-20T03:42:15.886Z,1.82
2022-12-20T03:44:25.228Z,1.81
2022-12-20T03:46:33.634Z,1.84
2022-12-20T03:48:44.866Z,1.82
2022-12-20T03:50:53.743Z,1.88
2022-12-20T03:53:02.602Z,1.90
2022-12-20T03:55:12.783Z,1.80
2022-12-20T03:57:23.753Z,1.80
2022-12-20T03:59:35.817Z,2.00
2022-12-20T04:01:46.069Z,2.05
2022-12-20T04:03:57.863Z,2.06
2022-12-20T04:06:05.768Z,2.09
2022-12-20T04:08:14.108Z,2.07
2022-12-20T04:10:23.267Z,2.04
2022-12-20T04:12:31.646Z,2.03
2022-12-20T04:14:40.519Z,2.09
2022-12-20T04:16:48.946Z,2.18
2022-12-20T04:19:00.502Z,2.15
2022-12-20T04:21:13.510Z,2.23
2022-12-20T04:23:25.155Z,2.31
2022-12-20T04:25:33.850Z,2.27
2022-12-20T04:27:42.743Z,2.27
2022-12-20T04:29:51.283Z,2.15
2022-12-20T04:32:01.292Z,2.20
2022-12-20T04:34:12.804Z,2.16
2022-12-20T04:36:21.134Z,2.22
2022-12-20T04:38:31.785Z,2.17
2022-12-20T04:40:40.326Z,2.26
2022-12-20T04:42:50.851Z,2.23
2022-12-20T04:45:00.038Z,2.22
2022-12-20T04:47:11.288Z,2.26
2022-12-20T04:49:22.475Z,2.33
2022-12-20T04:51:31.482Z,2.34
2022-12-20T04:53:57.557Z,2.26
2022-12-20T04:56:30.312Z,2.16
2022-12-20T04:58:45.196Z,2.23
2022-12-20T05:00:53.494Z,2.31
2022-12-20T05:03:05.675Z,2.40
2022-12-20T05:05:17.390Z,2.36
2022-12-20T05:07:30.777Z,2.31
2022-12-20T05:09:41.885Z,2.48
2022-12-20T05:11:50.067Z,2.41
2022-12-20T05:13:58.128Z,2.41
2022-12-20T05:16:06.780Z,2.21
2022-12-20T05:18:16.315Z,2.21
2022-12-20T05:20:39.222Z,2.19
2022-12-20T05:22:59.677Z,2.13
2022-12-20T05:25:20.963Z,2.15
2022-12-20T05:27:31.035Z,2.08
2022-12-20T05:29:39.054Z,2.06
2022-12-20T05:31:47.703Z,2.01
2022-12-20T05:33:57.349Z,2.06
2022-12-20T05:36:12.810Z,2.01
2022-12-20T05:38:20.817Z,1.97
2022-12-20T05:40:29.213Z,1.97
2022-12-20T05:42:38.782Z,1.96
2022-12-20T05:44:46.704Z,1.93
2022-12-20T05:46:55.186Z,2.00
2022-12-20T05:49:08.382Z,1.90
2022-12-20T05:51:19.287Z,1.87
2022-12-20T05:53:46.856Z,1.79
2022-12-20T05:55:58.089Z,1.84
2022-12-20T05:58:18.047Z,1.85
2022-12-20T06:00:33.784Z,1.90
2022-12-20T06:02:42.937Z,1.90
2022-12-20T06:04:52.055Z,2.01
2022-12-20T06:07:09.177Z,2.01
2022-12-20T06:09:18.682Z,1.91
2022-12-20T06:11:34.876Z,1.98
2022-12-20T06:13:46.784Z,1.93
2022-12-20T06:15:56.135Z,1.89
2022-12-20T06:18:04.358Z,1.93
2022-12-20T06:20:14.199Z,1.90
2022-12-20T06:22:28.794Z,1.90
2022-12-20T06:24:44.356Z,2.03
2022-12-20T06:26:56.600Z,2.19
2022-12-20T06:29:07.355Z,2.38
2022-12-20T06:31:20.112Z,2.43
2022-12-20T06:33:31.875Z,2.34
2022-12-20T06:35:40.045Z,2.43
2022-12-20T06:38:19.167Z,2.34
2022-12-20T06:43:31.821Z,2.48
2022-12-20T06:45:42.564Z,2.45
2022-12-20T06:47:52.085Z,2.50
2022-12-20T06:50:15.466Z,2.63
2022-12-20T06:52:30.909Z,2.61
2022-12-20T06:57:20.235Z,2.61
2022-12-20T06:59:32.774Z,2.54
2022-12-20T07:01:45.887Z,2.55
2022-12-20T07:04:02.019Z,2.53
2022-12-20T07:06:27.706Z,2.47
2022-12-20T07:08:50.194Z,2.54
2022-12-20T07:11:10.583Z,2.54
2022-12-20T07:13:42.415Z,2.36
2022-12-20T07:16:10.560Z,2.34
2022-12-20T07:18:38.466Z,2.29
2022-12-20T07:21:13.660Z,2.26
2022-12-20T07:23:48.015Z,2.31
2022-12-20T07:41:05.765Z,2.31
2022-12-20T07:46:26.054Z,2.24
2022-12-20T07:48:54.873Z,2.38
2022-12-20T07:54:23.517Z,2.53
2022-12-20T07:57:04.780Z,2.60
2022-12-20T07:59:22.740Z,2.66
2022-12-20T08:02:14.034Z,2.69
2022-12-20T08:04:47.715Z,2.75
2022-12-20T08:07:01.136Z,2.86
2022-12-20T08:09:10.109Z,2.81
2022-12-20T08:11:21.782Z,2.80
2022-12-20T08:13:32.751Z,2.93
2022-12-20T08:15:40.595Z,2.87
2022-12-20T08:17:54.410Z,2.89
2022-12-20T08:20:02.282Z,2.90
2022-12-20T08:22:14.762Z,2.90
2022-12-20T08:24:22.639Z,2.87
2022-12-20T08:26:34.361Z,3.02
2022-12-20T08:28:44.289Z,3.00
2022-12-20T08:30:52.289Z,2.99
2022-12-20T08:33:02.868Z,2.84
2022-12-20T08:35:13.271Z,2.79
2022-12-20T08:37:22.207Z,2.72
2022-12-20T08:39:30.109Z,2.79
2022-12-20T08:41:38.686Z,2.70
2022-12-20T08:43:47.201Z,2.73
2022-12-20T08:45:57.406Z,2.72
2022-12-20T08:48:08.577Z,2.76
2022-12-20T08:50:17.335Z,2.79
2022-12-20T08:52:25.727Z,2.74
2022-12-20T08:54:33.831Z,2.72
2022-12-20T08:56:41.927Z,2.76
2022-12-20T08:58:51.678Z,2.81
2022-12-20T09:01:06.385Z,2.85
2022-12-20T09:03:18.233Z,2.86
2022-12-20T09:05:26.804Z,2.91
2022-12-20T09:07:34.673Z,2.97
2022-12-20T09:09:43.363Z,3.00
2022-12-20T09:11:51.836Z,2.97
2022-12-20T09:14:01.218Z,3.16
2022-12-20T09:16:10.926Z,3.04
2022-12-20T09:18:21.550Z,3.21
2022-12-20T09:20:31.144Z,3.31
2022-12-20T09:22:40.013Z,3.36
2022-12-20T09:24:48.167Z,3.49
2022-12-20T09:26:56.274Z,3.51
2022-12-20T09:29:05.429Z,3.66
2022-12-20T09:31:15.623Z,3.62
2022-12-20T09:33:26.214Z,3.74
2022-12-20T09:35:34.785Z,3.89
2022-12-20T09:37:42.678Z,3.87
2022-12-20T09:39:53.378Z,3.93
2022-12-20T09:42:01.764Z,3.92
2022-12-20T09:44:18.540Z,3.97
2022-12-20T09:46:28.509Z,4.11
2022-12-20T09:48:42.231Z,4.21
2022-12-20T09:51:00.665Z,4.23
2022-12-20T09:53:24.483Z,4.22
2022-12-20T09:55:38.142Z,4.38
2022-12-20T09:57:58.528Z,4.40
2022-12-20T10:00:15.191Z,4.43
2022-12-20T10:02:55.525Z,4.55
2022-12-20T10:04:58.428Z,4.61
2022-12-20T10:07:23.796Z,4.59
2022-12-20T10:09:51.374Z,4.91
2022-12-20T10:12:07.848Z,5.10
2022-12-20T10:14:28.901Z,5.34
2022-12-20T10:16:43.617Z,5.33
2022-12-20T10:19:01.993Z,5.31
2022-12-20T10:21:23.698Z,5.37
2022-12-20T10:23:36.937Z,5.39
2022-12-20T10:25:46.317Z,5.20
2022-12-20T10:27:58.347Z,5.14
2022-12-20T10:30:16.010Z,5.12
2022-12-20T10:32:29.255Z,5.00
2022-12-20T10:34:42.194Z,4.87
2022-12-20T10:37:14.768Z,4.72
2022-12-20T10:39:46.509Z,4.61
2022-12-20T10:41:54.777Z,4.52
2022-12-20T10:44:05.588Z,4.37
2022-12-20T10:46:16.908Z,4.18
2022-12-20T10:48:34.160Z,4.18
2022-12-20T10:50:42.749Z,4.30
2022-12-20T10:53:16.420Z,4.35
2022-12-20T10:55:42.922Z,4.34
2022-12-20T10:57:50.945Z,4.31
2022-12-20T11:00:02.441Z,4.28
2022-12-20T11:02:35.051Z,4.20
2022-12-20T11:05:01.227Z,4.33
2022-12-20T11:07:27.716Z,4.36
2022-12-20T11:09:40.919Z,4.36
2022-12-20T11:12:04.648Z,4.41
2022-12-20T11:14:18.757Z,4.53
2022-12-20T11:16:37.017Z,4.55
2022-12-20T11:18:55.237Z,4.64
2022-12-20T11:21:27.905Z,4.83
2022-12-20T11:23:42.340Z,4.96
2022-12-20T11:26:05.963Z,5.11
2022-12-20T11:28:43.811Z,5.10
2022-12-20T11:31:02.096Z,4.98
2022-12-20T11:33:43.362Z,5.01
2022-12-20T11:35:59.245Z,4.87
2022-12-20T11:38:17.897Z,4.94
2022-12-20T11:40:36.795Z,5.02
2022-12-20T11:43:02.302Z,4.98
2022-12-20T11:45:18.534Z,4.94
2022-12-20T11:47:58.789Z,5.06
2022-12-20T11:50:20.965Z,5.21
2022-12-20T11:52:38.165Z,5.38
2022-12-20T11:54:50.409Z,5.44
2022-12-20T11:57:05.165Z,5.58
2022-12-20T11:59:25.466Z,5.67
2022-12-20T12:01:39.338Z,5.78
2022-12-20T12:03:59.792Z,5.94
2022-12-20T12:06:16.604Z,5.83
2022-12-20T12:08:27.911Z,5.79
2022-12-20T12:10:40.226Z,5.99
2022-12-20T12:12:49.460Z,6.08
2022-12-20T12:15:07.014Z,6.07
2022-12-20T12:17:27.751Z,5.87
2022-12-20T12:19:38.084Z,5.69
2022-12-20T12:21:55.800Z,5.57
2022-12-20T12:24:14.637Z,5.50
2022-12-20T12:26:27.127Z,5.53
2022-12-20T12:28:37.120Z,5.46
2022-12-20T12:30:52.006Z,5.47
2022-12-20T12:33:07.679Z,5.53
2022-12-20T12:35:41.838Z,5.50
2022-12-20T12:38:02.404Z,5.46
2022-12-20T12:40:52.566Z,5.49
2022-12-20T12:43:33.265Z,5.67
2022-12-20T12:45:47.209Z,5.74
2022-12-20T12:48:01.675Z,5.94
2022-12-20T12:50:19.336Z,6.12
2022-12-20T12:52:41.091Z,6.38
2022-12-20T12:54:49.176Z,6.57
2022-12-20T12:57:03.491Z,6.70
2022-12-20T12:59:39.873Z,6.79
2022-12-20T13:01:54.252Z,6.93
2022-12-20T13:04:29.094Z,6.87
2022-12-20T13:06:58.666Z,6.71
2022-12-20T13:09:22.651Z,6.73
2022-12-20T13:11:36.199Z,6.68
2022-12-20T13:13:44.066Z,6.51
2022-12-20T13:16:09.840Z,6.44
2022-12-20T13:18:36.780Z,6.51
2022-12-20T13:21:32.208Z,6.46
2022-12-20T13:23:43.829Z,6.45
2022-12-20T13:25:54.406Z,6.34
2022-12-20T13:28:32.054Z,6.33
2022-12-20T13:30:40.081Z,6.33
2022-12-20T13:33:01.346Z,6.21
2022-12-20T13:35:31.833Z,6.18
2022-12-20T13:38:02.185Z,6.18
2022-12-20T13:40:25.750Z,6.09
2022-12-20T13:42:44.110Z,6.19
2022-12-20T13:44:55.570Z,6.27
2022-12-20T13:47:10.825Z,6.11
2022-12-20T13:49:26.655Z,5.96
2022-12-20T13:51:34.963Z,5.78
2022-12-20T13:53:55.466Z,5.71
2022-12-20T13:56:32.972Z,5.64
2022-12-20T13:58:49.970Z,5.68
2022-12-20T14:01:08.378Z,5.52
2022-12-20T14:03:27.948Z,5.46
2022-12-20T14:05:39.932Z,5.40
2022-12-20T14:07:50.675Z,5.28
2022-12-20T14:10:04.032Z,5.26
2022-12-20T14:12:25.514Z,5.30
2022-12-20T14:14:40.411Z,5.20
2022-12-20T14:16:48.209Z,5.18
2022-12-20T14:19:04.893Z,5.22
2022-12-20T14:21:12.992Z,5.28
2022-12-20T14:23:23.713Z,5.33
2022-12-20T14:25:40.055Z,5.34
2022-12-20T14:27:49.045Z,5.45
2022-12-20T14:29:56.899Z,5.46
2022-12-20T14:32:06.158Z,5.35
2022-12-20T14:34:19.296Z,5.33
2022-12-20T14:36:28.351Z,5.37
2022-12-20T14:38:36.188Z,5.30
2022-12-20T14:40:52.141Z,5.29
2022-12-20T14:43:01.775Z,5.31
2022-12-20T14:45:20.424Z,5.25
2022-12-20T14:47:30.551Z,5.29
2022-12-20T14:49:41.086Z,5.38
2022-12-20T14:51:49.907Z,5.51
2022-12-20T14:53:58.870Z,5.56
2022-12-20T14:56:17.743Z,5.54
2022-12-20T14:58:30.977Z,5.49
2022-12-20T15:00:39.401Z,5.50
2022-12-20T15:03:02.391Z,5.30
2022-12-20T15:05:12.629Z,5.26
2022-12-20T15:07:33.417Z,5.23
2022-12-20T15:09:42.708Z,5.10
2022-12-20T15:11:54.770Z,5.06
2022-12-20T15:14:04.627Z,5.05
2022-12-20T15:16:18.625Z,5.14
2022-12-20T15:18:27.542Z,5.23
2022-12-20T15:20:37.143Z,5.08
2022-12-20T15:22:45.211Z,5.11
2022-12-20T15:24:53.073Z,5.01
2022-12-20T15:27:03.772Z,5.05
2022-12-20T15:29:19.312Z,5.06
2022-12-20T15:31:33.711Z,5.02
2022-12-20T15:33:43.758Z,4.96
2022-12-20T15:35:51.597Z,5.01
2022-12-20T15:37:59.456Z,4.96
2022-12-20T15:40:08.710Z,4.87
2022-12-20T15:42:21.215Z,4.92
2022-12-20T15:44:32.558Z,4.88
2022-12-20T15:46:40.603Z,4.85
2022-12-20T15:48:48.626Z,4.85
2022-12-20T15:50:58.895Z,4.81
2022-12-20T15:53:07.539Z,4.80
2022-12-20T15:55:15.548Z,4.78
2022-12-20T15:57:30.292Z,4.88
2022-12-20T16:02:06.326Z,4.92
2022-12-20T16:04:19.050Z,4.86
2022-12-20T16:06:26.955Z,4.87
2022-12-20T16:08:35.186Z,5.05
2022-12-20T16:10:43.044Z,5.07
2022-12-20T16:12:55.861Z,5.12
2022-12-20T16:15:03.780Z,5.12
2022-12-20T16:17:16.103Z,5.09
2022-12-20T16:19:23.971Z,5.09
2022-12-20T16:21:36.091Z,5.14
2022-12-20T16:23:43.905Z,5.11
2022-12-20T16:25:52.592Z,5.18
2022-12-20T16:28:03.335Z,5.12
2022-12-20T16:30:15.033Z,5.02
2022-12-20T16:32:24.494Z,4.88
2022-12-20T16:34:32.267Z,4.88
2022-12-20T16:36:40.243Z,4.87
2022-12-20T16:38:52.403Z,4.84
2022-12-20T16:41:15.407Z,4.85
2022-12-20T16:43:26.209Z,4.98
2022-12-20T16:45:35.372Z,4.94
2022-12-20T16:47:43.910Z,4.98
2022-12-20T16:49:53.568Z,5.02
2022-12-20T16:52:01.937Z,4.95
2022-12-20T16:54:20.048Z,4.84
2022-12-20T16:56:30.644Z,4.86
2022-12-20T16:59:17.381Z,4.83
2022-12-20T17:01:16.466Z,4.85
2022-12-20T17:03:24.695Z,5.02
2022-12-20T17:05:34.499Z,5.03
2022-12-20T17:07:42.610Z,4.94
2022-12-20T17:12:18.499Z,4.96
2022-12-20T17:14:28.763Z,4.87
2022-12-20T17:16:36.581Z,4.96
2022-12-20T17:18:44.778Z,4.88
2022-12-20T17:20:55.347Z,5.01
2022-12-20T17:23:03.179Z,5.07
2022-12-20T17:25:21.509Z,5.09
2022-12-20T17:27:29.234Z,5.02
2022-12-20T17:29:39.794Z,4.93
2022-12-20T17:31:49.514Z,4.85
2022-12-20T17:33:57.877Z,4.85
2022-12-20T17:36:06.004Z,4.83
2022-12-20T17:38:15.794Z,4.83
2022-12-20T17:40:23.588Z,4.87
2022-12-20T17:42:31.895Z,4.91
2022-12-20T17:44:42.571Z,4.86
2022-12-20T17:46:51.157Z,4.99
2022-12-20T17:48:59.293Z,5.00
2022-12-20T17:51:12.926Z,4.91
2022-12-20T17:53:21.129Z,4.86
2022-12-20T17:55:31.022Z,4.94
2022-12-20T17:57:39.162Z,5.00
2022-12-20T17:59:49.747Z,5.03
2022-12-20T18:01:57.986Z,5.12
2022-12-20T18:04:09.183Z,5.07
2022-12-20T18:06:17.551Z,5.06
2022-12-20T18:08:25.354Z,5.07
2022-12-20T18:10:35.138Z,4.98
2022-12-20T18:12:43.326Z,4.88
2022-12-20T18:14:54.389Z,4.87
2022-12-20T18:17:02.953Z,4.84
2022-12-20T18:19:17.618Z,4.88
2022-12-20T18:21:28.149Z,4.83
2022-12-20T18:23:36.886Z,4.88
2022-12-20T18:25:44.768Z,4.88
2022-12-20T18:27:52.771Z,4.89
2022-12-20T18:30:03.619Z,4.96
2022-12-20T18:32:11.601Z,4.89
2022-12-20T18:34:19.554Z,4.87
2022-12-20T18:36:29.480Z,4.98
2022-12-20T18:38:37.527Z,5.01
2022-12-20T18:40:47.592Z,5.12
2022-12-20T18:42:59.606Z,5.11
2022-12-20T18:45:14.225Z,5.15
2022-12-20T18:47:22.256Z,5.10
2022-12-20T18:49:30.701Z,5.18
2022-12-20T18:51:39.566Z,5.17
2022-12-20T18:53:49.084Z,5.08
2022-12-20T18:55:57.355Z,5.03
2022-12-20T18:58:05.436Z,4.88
2022-12-20T19:00:18.285Z,4.91
2022-12-20T19:02:26.896Z,4.92
2022-12-20T19:04:34.847Z,4.96
2022-12-20T19:06:42.803Z,5.02
2022-12-20T19:08:50.922Z,5.04
2022-12-20T19:11:03.293Z,5.17
2022-12-20T19:13:11.107Z,5.08
2022-12-20T19:15:21.829Z,5.07
2022-12-20T19:17:29.589Z,4.91
2022-12-20T19:19:37.521Z,4.93
2022-12-20T19:21:45.389Z,4.98
2022-12-20T19:23:55.734Z,4.94
2022-12-20T19:26:05.713Z,5.06
2022-12-20T19:28:13.891Z,5.00
2022-12-20T19:30:24.752Z,5.00
2022-12-20T19:32:32.660Z,5.05
2022-12-20T19:34:40.620Z,5.03
2022-12-20T19:36:49.749Z,5.04
2022-12-20T19:38:59.483Z,5.07
2022-12-20T19:41:07.567Z,4.98
2022-12-20T19:43:19.003Z,4.96
2022-12-20T19:45:29.573Z,4.85
2022-12-20T19:47:37.744Z,4.91
2022-12-20T19:49:45.730Z,4.95
2022-12-20T19:52:06.130Z,4.97
2022-12-20T19:54:14.210Z,4.98
2022-12-20T19:56:25.242Z,4.99
2022-12-20T19:58:33.607Z,5.13
2022-12-20T20:00:44.781Z,5.14
2022-12-20T20:02:52.848Z,5.01
2022-12-20T20:05:00.699Z,4.98
2022-12-20T20:07:08.477Z,5.05
2022-12-20T20:09:16.500Z,4.91
2022-12-20T20:11:24.301Z,4.80
2022-12-20T20:13:33.395Z,4.72
2022-12-20T20:15:41.563Z,4.83
2022-12-20T20:17:52.483Z,4.85
2022-12-20T20:20:00.385Z,4.86
2022-12-20T20:22:10.859Z,4.81
2022-12-20T20:24:19.195Z,4.79
2022-12-20T20:26:29.437Z,4.76
2022-12-20T20:28:44.422Z,4.75
2022-12-20T20:30:54.376Z,4.78
2022-12-20T20:33:04.984Z,4.83
2022-12-20T20:35:13.207Z,4.84
2022-12-20T20:37:21.244Z,4.69
2022-12-20T20:39:29.264Z,4.56
2022-12-20T20:41:37.230Z,4.41
2022-12-20T20:43:45.995Z,4.36
2022-12-20T20:45:54.735Z,4.28
2022-12-20T20:48:06.186Z,4.26
2022-12-20T20:50:14.987Z,4.26
2022-12-20T20:52:23.112Z,4.24
2022-12-20T20:54:31.466Z,4.25
2022-12-20T20:56:39.524Z,4.23
2022-12-20T20:58:48.157Z,4.29
2022-12-20T21:00:59.980Z,4.22
2022-12-20T21:03:12.095Z,4.09
2022-12-20T21:06:14.028Z,4.12
2022-12-20T21:07:48.339Z,4.03
2022-12-20T21:09:57.081Z,4.03
2022-12-20T21:12:05.833Z,4.08
2022-12-20T21:14:14.026Z,3.97
2022-12-20T21:16:24.569Z,4.00
2022-12-20T21:18:35.184Z,4.06
2022-12-20T21:20:43.817Z,4.16
2022-12-20T21:22:52.177Z,4.14
2022-12-20T21:25:00.552Z,4.21
2022-12-20T21:27:08.497Z,4.28
2022-12-20T21:29:16.700Z,4.34
2022-12-20T21:31:25.055Z,4.37
2022-12-20T21:33:35.791Z,4.34
2022-12-20T21:35:48.263Z,4.20
2022-12-20T21:37:59.599Z,4.19
2022-12-20T21:40:08.908Z,4.13
2022-12-20T21:42:16.809Z,4.21
2022-12-20T21:44:24.899Z,4.28
2022-12-20T21:46:34.910Z,4.38
2022-12-20T21:48:47.555Z,4.42
2022-12-20T21:51:02.924Z,4.36
2022-12-20T21:53:17.461Z,4.33
2022-12-20T21:55:27.517Z,4.31
2022-12-20T21:57:35.370Z,4.39
2022-12-20T21:59:43.122Z,4.42
2022-12-20T22:01:51.374Z,4.49
2022-12-20T22:04:03.998Z,4.52
2022-12-20T22:06:12.008Z,4.59
2022-12-20T22:08:21.381Z,4.68
2022-12-20T22:10:29.448Z,4.67
2022-12-20T22:12:37.213Z,4.61
2022-12-20T22:14:47.908Z,4.57
2022-12-20T22:16:56.172Z,4.54
2022-12-20T22:19:06.899Z,4.56
2022-12-20T22:21:16.895Z,4.57
2022-12-20T22:23:24.901Z,4.56
2022-12-20T22:25:32.929Z,4.58
2022-12-20T22:27:40.771Z,4.62
2022-12-20T22:29:48.569Z,4.69
2022-12-20T22:31:56.490Z,4.77
2022-12-20T22:34:08.041Z,4.89
2022-12-20T22:36:17.700Z,4.96
2022-12-20T22:38:25.461Z,5.01
2022-12-20T22:40:33.331Z,5.12
2022-12-20T22:42:42.032Z,5.11
2022-12-20T22:44:49.933Z,5.11
2022-12-20T22:46:57.731Z,5.17
2022-12-20T22:49:08.308Z,5.23
2022-12-20T22:51:18.189Z,5.31
2022-12-20T22:53:26.071Z,5.36
2022-12-20T22:55:34.349Z,5.37
2022-12-20T22:57:42.346Z,5.32
2022-12-20T22:59:50.144Z,5.39
2022-12-20T23:01:58.148Z,5.52
2022-12-20T23:04:09.183Z,5.52
2022-12-20T23:06:20.169Z,5.45
2022-12-20T23:08:29.420Z,5.23
2022-12-20T23:10:49.587Z,5.12
2022-12-20T23:13:09.845Z,5.04
2022-12-20T23:15:30.220Z,4.92
2022-12-20T23:17:38.170Z,4.85
2022-12-20T23:20:00.971Z,4.96
2022-12-20T23:22:21.229Z,4.92
2022-12-20T23:24:29.033Z,4.88
2022-12-20T23:26:40.601Z,4.74
2022-12-20T23:28:48.523Z,4.78
2022-12-20T23:30:56.409Z,4.73
2022-12-20T23:33:04.434Z,4.79
2022-12-20T23:35:17.869Z,4.62
2022-12-20T23:37:25.679Z,4.68
2022-12-20T23:39:33.733Z,4.72
2022-12-20T23:41:41.667Z,4.77
2022-12-20T23:43:49.633Z,4.69
2022-12-20T23:45:57.698Z,4.71
2022-12-20T23:48:05.690Z,4.65
2022-12-20T23:50:16.360Z,4.74
2022-12-20T23:52:24.522Z,4.69
2022-12-20T23:54:32.761Z,4.85
2022-12-20T23:56:41.082Z,5.00
2022-12-20T23:58:53.279Z,4.99
